sensor_id;sensor_type;location;lat;lon;timestamp;P1;durP1;ratioP1;P2;durP2;ratioP2
6902;SDS011;20232;49.408;8.702;2024-02-23T05:02:05;5.30;;;1.60;;
6902;SDS011;20232;49.408;8.702;2024-02-23T05:04:31;2.13;;;1.50;;
6902;SDS011;20232;49.408;8.702;2024-02-23T05:06:56;3.47;;;1.70;;
6902;SDS011;20232;49.408;8.702;2024-02-23T05:09:22;2.03;;;1.40;;
6902;SDS011;20232;49.408;8.702;2024-02-23T05:11:47;3.07;;;1.50;;
6902;SDS011;20232;49.408;8.702;2024-02-23T05:14:12;3.63;;;1.70;;
6902;SDS011;20232;49.408;8.702;2024-02-23T05:16:38;2.87;;;1.70;;
6902;SDS011;20232;49.408;8.702;2024-02-23T05:19:04;3.27;;;1.40;;
6902;SDS011;20232;49.408;8.702;2024-02-23T05:21:29;4.47;;;1.40;;
6902;SDS011;20232;49.408;8.702;2024-02-23T05:23:56;4.20;;;1.80;;
6902;SDS011;20232;49.408;8.702;2024-02-23T05:26:21;4.13;;;1.40;;
6902;SDS011;20232;49.408;8.702;2024-02-23T05:28:47;3.33;;;1.70;;
6902;SDS011;20232;49.408;8.702;2024-02-23T05:31:12;2.60;;;1.47;;
6902;SDS011;20232;49.408;8.702;2024-02-23T05:33:38;1.40;;;1.30;;
6902;SDS011;20232;49.408;8.702;2024-02-23T05:36:04;3.40;;;1.57;;
6902;SDS011;20232;49.408;8.702;2024-02-23T05:38:29;1.40;;;1.30;;
6902;SDS011;20232;49.408;8.702;2024-02-23T05:40:55;3.13;;;1.40;;
6902;SDS011;20232;49.408;8.702;2024-02-23T05:43:21;2.33;;;1.70;;
6902;SDS011;20232;49.408;8.702;2024-02-23T05:45:46;3.03;;;1.53;;
6902;SDS011;20232;49.408;8.702;2024-02-23T05:48:11;2.47;;;1.30;;
6902;SDS011;20232;49.408;8.702;2024-02-23T05:50:37;5.13;;;1.40;;
6902;SDS011;20232;49.408;8.702;2024-02-23T05:53:02;2.23;;;1.40;;
6902;SDS011;20232;49.408;8.702;2024-02-23T05:55:29;3.90;;;2.00;;
6902;SDS011;20232;49.408;8.702;2024-02-23T05:57:55;3.67;;;1.80;;
6902;SDS011;20232;49.408;8.702;2024-02-23T06:00:21;3.77;;;1.30;;
6902;SDS011;20232;49.408;8.702;2024-02-23T06:02:47;2.10;;;1.40;;
6902;SDS011;20232;49.408;8.702;2024-02-23T06:05:12;5.40;;;1.97;;
6902;SDS011;20232;49.408;8.702;2024-02-23T06:07:38;4.93;;;1.63;;
6902;SDS011;20232;49.408;8.702;2024-02-23T06:10:03;4.23;;;1.77;;
6902;SDS011;20232;49.408;8.702;2024-02-23T06:12:30;2.70;;;1.50;;
6902;SDS011;20232;49.408;8.702;2024-02-23T06:14:55;1.50;;;1.40;;
6902;SDS011;20232;49.408;8.702;2024-02-23T06:17:22;2.60;;;1.40;;
6902;SDS011;20232;49.408;8.702;2024-02-23T06:19:48;3.03;;;1.50;;
6902;SDS011;20232;49.408;8.702;2024-02-23T06:22:13;1.60;;;1.50;;
6902;SDS011;20232;49.408;8.702;2024-02-23T06:24:42;2.30;;;1.50;;
6902;SDS011;20232;49.408;8.702;2024-02-23T06:27:07;3.87;;;1.60;;
6902;SDS011;20232;49.408;8.702;2024-02-23T06:29:33;3.50;;;1.70;;
6902;SDS011;20232;49.408;8.702;2024-02-23T06:31:58;2.93;;;1.60;;
6902;SDS011;20232;49.408;8.702;2024-02-23T06:34:26;2.10;;;1.30;;
6902;SDS011;20232;49.408;8.702;2024-02-23T06:36:52;3.17;;;1.50;;
6902;SDS011;20232;49.408;8.702;2024-02-23T06:39:17;3.30;;;1.90;;
6902;SDS011;20232;49.408;8.702;2024-02-23T06:41:43;4.90;;;1.80;;
6902;SDS011;20232;49.408;8.702;2024-02-23T06:44:08;4.50;;;1.60;;
6902;SDS011;20232;49.408;8.702;2024-02-23T06:46:34;4.30;;;2.13;;
6902;SDS011;20232;49.408;8.702;2024-02-23T06:48:59;4.30;;;1.50;;
6902;SDS011;20232;49.408;8.702;2024-02-23T06:51:25;2.33;;;1.70;;
6902;SDS011;20232;49.408;8.702;2024-02-23T06:53:50;2.47;;;1.43;;
6902;SDS011;20232;49.408;8.702;2024-02-23T06:56:15;3.93;;;2.00;;
6902;SDS011;20232;49.408;8.702;2024-02-23T06:58:41;6.87;;;1.80;;
6902;SDS011;20232;49.408;8.702;2024-02-23T07:01:06;5.37;;;1.93;;
6902;SDS011;20232;49.408;8.702;2024-02-23T07:03:36;5.50;;;1.73;;
6902;SDS011;20232;49.408;8.702;2024-02-23T07:06:02;2.97;;;1.60;;
6902;SDS011;20232;49.408;8.702;2024-02-23T07:08:28;3.00;;;1.53;;
6902;SDS011;20232;49.408;8.702;2024-02-23T07:10:53;2.13;;;1.70;;
6902;SDS011;20232;49.408;8.702;2024-02-23T07:13:19;1.87;;;1.53;;
6902;SDS011;20232;49.408;8.702;2024-02-23T07:15:45;2.77;;;2.00;;
6902;SDS011;20232;49.408;8.702;2024-02-23T07:18:10;5.10;;;1.80;;
6902;SDS011;20232;49.408;8.702;2024-02-23T07:20:36;3.43;;;2.00;;
6902;SDS011;20232;49.408;8.702;2024-02-23T07:23:02;2.27;;;1.63;;
6902;SDS011;20232;49.408;8.702;2024-02-23T07:25:29;3.20;;;1.80;;
6902;SDS011;20232;49.408;8.702;2024-02-23T07:27:54;3.43;;;1.73;;
6902;SDS011;20232;49.408;8.702;2024-02-23T07:30:20;3.53;;;1.93;;
6902;SDS011;20232;49.408;8.702;2024-02-23T07:32:45;2.47;;;1.87;;
6902;SDS011;20232;49.408;8.702;2024-02-23T07:35:11;4.53;;;1.90;;
6902;SDS011;20232;49.408;8.702;2024-02-23T07:37:37;5.40;;;1.67;;
6902;SDS011;20232;49.408;8.702;2024-02-23T07:40:02;3.40;;;2.07;;
6902;SDS011;20232;49.408;8.702;2024-02-23T07:42:29;2.97;;;1.83;;
6902;SDS011;20232;49.408;8.702;2024-02-23T07:44:55;3.50;;;1.67;;
6902;SDS011;20232;49.408;8.702;2024-02-23T07:47:21;2.57;;;1.80;;
6902;SDS011;20232;49.408;8.702;2024-02-23T07:49:47;4.73;;;2.20;;
6902;SDS011;20232;49.408;8.702;2024-02-23T07:52:12;2.67;;;1.70;;
6902;SDS011;20232;49.408;8.702;2024-02-23T07:54:37;4.97;;;2.53;;
6902;SDS011;20232;49.408;8.702;2024-02-23T07:57:03;4.10;;;1.43;;
6902;SDS011;20232;49.408;8.702;2024-02-23T07:59:30;3.57;;;1.60;;
6902;SDS011;20232;49.408;8.702;2024-02-23T08:01:55;6.97;;;2.07;;
6902;SDS011;20232;49.408;8.702;2024-02-23T08:04:21;5.63;;;1.60;;
6902;SDS011;20232;49.408;8.702;2024-02-23T08:06:46;2.13;;;1.97;;
6902;SDS011;20232;49.408;8.702;2024-02-23T08:09:13;2.77;;;1.53;;
6902;SDS011;20232;49.408;8.702;2024-02-23T08:11:39;2.73;;;1.63;;
6902;SDS011;20232;49.408;8.702;2024-02-23T08:14:04;2.37;;;1.60;;
6902;SDS011;20232;49.408;8.702;2024-02-23T08:16:30;4.10;;;1.60;;
6902;SDS011;20232;49.408;8.702;2024-02-23T08:18:55;4.27;;;1.50;;
6902;SDS011;20232;49.408;8.702;2024-02-23T08:21:21;1.83;;;1.40;;
6902;SDS011;20232;49.408;8.702;2024-02-23T08:23:46;3.63;;;1.50;;
6902;SDS011;20232;49.408;8.702;2024-02-23T08:26:11;4.00;;;1.97;;
6902;SDS011;20232;49.408;8.702;2024-02-23T08:28:37;4.97;;;1.53;;
6902;SDS011;20232;49.408;8.702;2024-02-23T08:31:03;5.00;;;1.77;;
6902;SDS011;20232;49.408;8.702;2024-02-23T08:33:28;2.43;;;1.43;;
6902;SDS011;20232;49.408;8.702;2024-02-23T08:35:54;1.73;;;1.23;;
6902;SDS011;20232;49.408;8.702;2024-02-23T08:38:19;4.90;;;1.63;;
6902;SDS011;20232;49.408;8.702;2024-02-23T08:40:45;2.90;;;1.73;;
6902;SDS011;20232;49.408;8.702;2024-02-23T08:43:10;6.27;;;1.67;;
6902;SDS011;20232;49.408;8.702;2024-02-23T08:45:36;1.57;;;1.30;;
6902;SDS011;20232;49.408;8.702;2024-02-23T08:48:01;2.37;;;1.50;;
6902;SDS011;20232;49.408;8.702;2024-02-23T08:50:28;4.63;;;1.60;;
6902;SDS011;20232;49.408;8.702;2024-02-23T08:52:53;5.23;;;1.60;;
6902;SDS011;20232;49.408;8.702;2024-02-23T08:55:19;2.87;;;1.73;;
6902;SDS011;20232;49.408;8.702;2024-02-23T08:57:44;2.53;;;1.40;;
6902;SDS011;20232;49.408;8.702;2024-02-23T09:00:10;9.77;;;2.07;;
6902;SDS011;20232;49.408;8.702;2024-02-23T09:02:36;5.47;;;1.97;;
6902;SDS011;20232;49.408;8.702;2024-02-23T09:05:03;6.63;;;2.10;;
6902;SDS011;20232;49.408;8.702;2024-02-23T09:07:29;3.67;;;1.53;;
6902;SDS011;20232;49.408;8.702;2024-02-23T09:09:55;3.27;;;1.57;;
6902;SDS011;20232;49.408;8.702;2024-02-23T09:12:21;5.27;;;1.70;;
6902;SDS011;20232;49.408;8.702;2024-02-23T09:14:47;2.20;;;1.57;;
6902;SDS011;20232;49.408;8.702;2024-02-23T09:17:12;2.33;;;1.30;;
6902;SDS011;20232;49.408;8.702;2024-02-23T09:19:38;3.13;;;1.57;;
6902;SDS011;20232;49.408;8.702;2024-02-23T09:22:03;5.37;;;1.70;;
6902;SDS011;20232;49.408;8.702;2024-02-23T09:24:29;3.40;;;1.87;;
6902;SDS011;20232;49.408;8.702;2024-02-23T09:26:54;3.77;;;1.67;;
6902;SDS011;20232;49.408;8.702;2024-02-23T09:29:20;5.07;;;1.60;;
6902;SDS011;20232;49.408;8.702;2024-02-23T09:31:46;4.43;;;1.60;;
6902;SDS011;20232;49.408;8.702;2024-02-23T09:34:12;3.70;;;1.37;;
6902;SDS011;20232;49.408;8.702;2024-02-23T09:36:38;6.13;;;1.80;;
6902;SDS011;20232;49.408;8.702;2024-02-23T09:39:03;3.73;;;1.80;;
6902;SDS011;20232;49.408;8.702;2024-02-23T09:41:29;4.60;;;1.50;;
6902;SDS011;20232;49.408;8.702;2024-02-23T09:43:56;3.87;;;2.33;;
6902;SDS011;20232;49.408;8.702;2024-02-23T09:46:23;1.97;;;1.30;;
6902;SDS011;20232;49.408;8.702;2024-02-23T09:48:50;3.70;;;1.80;;
6902;SDS011;20232;49.408;8.702;2024-02-23T09:51:16;4.60;;;1.60;;
6902;SDS011;20232;49.408;8.702;2024-02-23T09:53:42;4.97;;;1.70;;
6902;SDS011;20232;49.408;8.702;2024-02-23T09:56:08;2.50;;;1.30;;
6902;SDS011;20232;49.408;8.702;2024-02-23T09:58:34;5.17;;;1.50;;
6902;SDS011;20232;49.408;8.702;2024-02-23T10:01:01;4.10;;;1.50;;
6902;SDS011;20232;49.408;8.702;2024-02-23T10:03:27;3.50;;;1.50;;
6902;SDS011;20232;49.408;8.702;2024-02-23T10:05:55;2.47;;;1.60;;
6902;SDS011;20232;49.408;8.702;2024-02-23T10:08:21;3.50;;;1.57;;
6902;SDS011;20232;49.408;8.702;2024-02-23T10:10:46;4.37;;;1.37;;
6902;SDS011;20232;49.408;8.702;2024-02-23T10:13:19;3.70;;;1.47;;
6902;SDS011;20232;49.408;8.702;2024-02-23T10:15:47;2.10;;;1.20;;
6902;SDS011;20232;49.408;8.702;2024-02-23T10:18:13;1.93;;;1.30;;
6902;SDS011;20232;49.408;8.702;2024-02-23T10:20:40;3.67;;;1.43;;
6902;SDS011;20232;49.408;8.702;2024-02-23T10:23:05;2.43;;;1.60;;
6902;SDS011;20232;49.408;8.702;2024-02-23T10:25:36;4.77;;;1.50;;
6902;SDS011;20232;49.408;8.702;2024-02-23T10:28:02;4.17;;;1.50;;
6902;SDS011;20232;49.408;8.702;2024-02-23T10:30:28;6.03;;;1.87;;
6902;SDS011;20232;49.408;8.702;2024-02-23T10:32:55;4.47;;;1.50;;
6902;SDS011;20232;49.408;8.702;2024-02-23T10:35:22;3.73;;;1.60;;
6902;SDS011;20232;49.408;8.702;2024-02-23T10:37:48;5.33;;;1.80;;
6902;SDS011;20232;49.408;8.702;2024-02-23T10:40:16;3.87;;;1.37;;
6902;SDS011;20232;49.408;8.702;2024-02-23T10:42:43;4.37;;;1.50;;
6902;SDS011;20232;49.408;8.702;2024-02-23T10:45:12;8.03;;;1.53;;
6902;SDS011;20232;49.408;8.702;2024-02-23T10:47:40;5.67;;;1.70;;
6902;SDS011;20232;49.408;8.702;2024-02-23T10:50:06;4.13;;;1.40;;
6902;SDS011;20232;49.408;8.702;2024-02-23T10:52:32;4.53;;;1.70;;
6902;SDS011;20232;49.408;8.702;2024-02-23T10:54:58;7.37;;;2.03;;
6902;SDS011;20232;49.408;8.702;2024-02-23T10:57:25;3.33;;;1.87;;
6902;SDS011;20232;49.408;8.702;2024-02-23T10:59:51;2.83;;;1.40;;
6902;SDS011;20232;49.408;8.702;2024-02-23T11:02:18;2.50;;;1.60;;
6902;SDS011;20232;49.408;8.702;2024-02-23T11:04:48;4.17;;;1.70;;
6902;SDS011;20232;49.408;8.702;2024-02-23T11:07:20;2.27;;;1.40;;
6902;SDS011;20232;49.408;8.702;2024-02-23T11:09:51;5.80;;;1.50;;
6902;SDS011;20232;49.408;8.702;2024-02-23T11:12:24;2.83;;;1.73;;
6902;SDS011;20232;49.408;8.702;2024-02-23T11:14:50;3.47;;;1.50;;
6902;SDS011;20232;49.408;8.702;2024-02-23T11:17:19;3.50;;;1.60;;
6902;SDS011;20232;49.408;8.702;2024-02-23T11:19:46;2.90;;;1.53;;
6902;SDS011;20232;49.408;8.702;2024-02-23T11:22:14;4.63;;;1.67;;
6902;SDS011;20232;49.408;8.702;2024-02-23T11:24:43;4.17;;;2.07;;
6902;SDS011;20232;49.408;8.702;2024-02-23T11:27:15;5.30;;;1.50;;
6902;SDS011;20232;49.408;8.702;2024-02-23T11:29:43;4.73;;;1.67;;
6902;SDS011;20232;49.408;8.702;2024-02-23T11:32:14;2.70;;;1.40;;
6902;SDS011;20232;49.408;8.702;2024-02-23T11:34:53;3.73;;;1.83;;
6902;SDS011;20232;49.408;8.702;2024-02-23T11:37:21;5.13;;;1.73;;
6902;SDS011;20232;49.408;8.702;2024-02-23T11:39:46;3.40;;;1.40;;
6902;SDS011;20232;49.408;8.702;2024-02-23T11:42:11;3.63;;;1.30;;
6902;SDS011;20232;49.408;8.702;2024-02-23T11:44:37;3.03;;;1.23;;
6902;SDS011;20232;49.408;8.702;2024-02-23T11:47:02;4.60;;;1.43;;
6902;SDS011;20232;49.408;8.702;2024-02-23T11:49:28;4.33;;;1.50;;
6902;SDS011;20232;49.408;8.702;2024-02-23T11:51:54;2.57;;;1.37;;
6902;SDS011;20232;49.408;8.702;2024-02-23T11:54:20;3.50;;;1.57;;
6902;SDS011;20232;49.408;8.702;2024-02-23T11:56:47;2.43;;;1.30;;
6902;SDS011;20232;49.408;8.702;2024-02-23T11:59:14;4.30;;;1.40;;
6902;SDS011;20232;49.408;8.702;2024-02-23T12:01:39;2.73;;;1.63;;
6902;SDS011;20232;49.408;8.702;2024-02-23T12:04:04;3.37;;;1.40;;
6902;SDS011;20232;49.408;8.702;2024-02-23T12:06:30;5.53;;;1.43;;
6902;SDS011;20232;49.408;8.702;2024-02-23T12:08:57;5.10;;;1.40;;
6902;SDS011;20232;49.408;8.702;2024-02-23T12:11:23;4.20;;;1.43;;
6902;SDS011;20232;49.408;8.702;2024-02-23T12:13:49;2.80;;;1.50;;
6902;SDS011;20232;49.408;8.702;2024-02-23T12:16:16;4.03;;;1.50;;
6902;SDS011;20232;49.408;8.702;2024-02-23T12:18:41;1.93;;;1.40;;
6902;SDS011;20232;49.408;8.702;2024-02-23T12:21:07;4.47;;;1.80;;
6902;SDS011;20232;49.408;8.702;2024-02-23T12:26:05;6.83;;;1.80;;
6902;SDS011;20232;49.408;8.702;2024-02-23T12:28:30;2.67;;;1.37;;
6902;SDS011;20232;49.408;8.702;2024-02-23T12:31:02;5.53;;;1.70;;
6902;SDS011;20232;49.408;8.702;2024-02-23T12:33:32;5.27;;;1.80;;
6902;SDS011;20232;49.408;8.702;2024-02-23T12:35:59;2.33;;;1.63;;
6902;SDS011;20232;49.408;8.702;2024-02-23T12:38:25;3.63;;;1.70;;
6902;SDS011;20232;49.408;8.702;2024-02-23T12:40:51;4.97;;;1.97;;
6902;SDS011;20232;49.408;8.702;2024-02-23T12:43:17;4.10;;;1.40;;
6902;SDS011;20232;49.408;8.702;2024-02-23T12:45:43;2.57;;;1.80;;
6902;SDS011;20232;49.408;8.702;2024-02-23T12:48:14;5.70;;;1.87;;
6902;SDS011;20232;49.408;8.702;2024-02-23T12:50:40;5.20;;;1.80;;
6902;SDS011;20232;49.408;8.702;2024-02-23T12:53:05;3.47;;;1.60;;
6902;SDS011;20232;49.408;8.702;2024-02-23T12:55:31;3.10;;;1.60;;
6902;SDS011;20232;49.408;8.702;2024-02-23T12:57:56;3.23;;;1.60;;
6902;SDS011;20232;49.408;8.702;2024-02-23T13:00:22;2.70;;;1.30;;
6902;SDS011;20232;49.408;8.702;2024-02-23T13:02:47;2.97;;;1.57;;
6902;SDS011;20232;49.408;8.702;2024-02-23T13:05:12;4.60;;;1.60;;
6902;SDS011;20232;49.408;8.702;2024-02-23T13:07:39;4.20;;;1.63;;
6902;SDS011;20232;49.408;8.702;2024-02-23T13:10:07;5.37;;;1.50;;
6902;SDS011;20232;49.408;8.702;2024-02-23T13:12:33;4.43;;;1.40;;
6902;SDS011;20232;49.408;8.702;2024-02-23T13:14:58;3.73;;;1.70;;
6902;SDS011;20232;49.408;8.702;2024-02-23T13:17:24;2.53;;;1.23;;
6902;SDS011;20232;49.408;8.702;2024-02-23T13:19:50;2.40;;;1.43;;
6902;SDS011;20232;49.408;8.702;2024-02-23T13:22:15;4.83;;;1.50;;
6902;SDS011;20232;49.408;8.702;2024-02-23T13:24:41;5.07;;;1.40;;
6902;SDS011;20232;49.408;8.702;2024-02-23T13:27:06;3.27;;;1.40;;
6902;SDS011;20232;49.408;8.702;2024-02-23T13:29:31;4.47;;;1.50;;
6902;SDS011;20232;49.408;8.702;2024-02-23T13:31:57;3.10;;;1.33;;
6902;SDS011;20232;49.408;8.702;2024-02-23T13:34:22;2.50;;;1.37;;
6902;SDS011;20232;49.408;8.702;2024-02-23T13:36:48;2.20;;;1.47;;
6902;SDS011;20232;49.408;8.702;2024-02-23T13:39:15;3.97;;;1.60;;
6902;SDS011;20232;49.408;8.702;2024-02-23T13:41:41;3.10;;;1.30;;
6902;SDS011;20232;49.408;8.702;2024-02-23T13:44:06;2.80;;;1.87;;
6902;SDS011;20232;49.408;8.702;2024-02-23T13:46:35;4.80;;;1.90;;
6902;SDS011;20232;49.408;8.702;2024-02-23T13:49:04;4.63;;;1.40;;
6902;SDS011;20232;49.408;8.702;2024-02-23T13:51:32;1.77;;;1.10;;
6902;SDS011;20232;49.408;8.702;2024-02-23T13:53:57;4.10;;;1.40;;
6902;SDS011;20232;49.408;8.702;2024-02-23T13:56:23;2.90;;;1.37;;
6902;SDS011;20232;49.408;8.702;2024-02-23T13:58:48;4.57;;;1.50;;
6902;SDS011;20232;49.408;8.702;2024-02-23T14:01:14;2.37;;;1.50;;
6902;SDS011;20232;49.408;8.702;2024-02-23T14:03:40;3.87;;;1.30;;
6902;SDS011;20232;49.408;8.702;2024-02-23T14:06:05;3.80;;;1.57;;
6902;SDS011;20232;49.408;8.702;2024-02-23T14:08:31;2.60;;;1.40;;
6902;SDS011;20232;49.408;8.702;2024-02-23T14:10:59;3.23;;;1.33;;
6902;SDS011;20232;49.408;8.702;2024-02-23T14:13:25;2.90;;;1.33;;
6902;SDS011;20232;49.408;8.702;2024-02-23T14:15:50;3.30;;;1.30;;
6902;SDS011;20232;49.408;8.702;2024-02-23T14:18:16;4.33;;;1.47;;
6902;SDS011;20232;49.408;8.702;2024-02-23T14:20:41;4.37;;;1.43;;
6902;SDS011;20232;49.408;8.702;2024-02-23T14:23:07;4.50;;;1.50;;
6902;SDS011;20232;49.408;8.702;2024-02-23T14:25:32;2.53;;;1.40;;
6902;SDS011;20232;49.408;8.702;2024-02-23T14:27:58;4.43;;;1.37;;
6902;SDS011;20232;49.408;8.702;2024-02-23T14:30:23;2.77;;;1.50;;
6902;SDS011;20232;49.408;8.702;2024-02-23T14:32:52;2.10;;;1.50;;
6902;SDS011;20232;49.408;8.702;2024-02-23T14:35:17;2.70;;;1.30;;
6902;SDS011;20232;49.408;8.702;2024-02-23T14:37:42;4.27;;;1.60;;
6902;SDS011;20232;49.408;8.702;2024-02-23T14:40:08;3.50;;;1.30;;
6902;SDS011;20232;49.408;8.702;2024-02-23T14:42:34;3.67;;;1.63;;
6902;SDS011;20232;49.408;8.702;2024-02-23T14:44:59;4.50;;;1.50;;
6902;SDS011;20232;49.408;8.702;2024-02-23T14:47:25;2.73;;;1.50;;
6902;SDS011;20232;49.408;8.702;2024-02-23T14:49:50;2.90;;;1.47;;
6902;SDS011;20232;49.408;8.702;2024-02-23T14:52:16;5.13;;;1.40;;
6902;SDS011;20232;49.408;8.702;2024-02-23T14:54:41;3.40;;;1.40;;
6902;SDS011;20232;49.408;8.702;2024-02-23T14:57:06;2.57;;;1.40;;
6902;SDS011;20232;49.408;8.702;2024-02-23T14:59:33;7.63;;;1.83;;
6902;SDS011;20232;49.408;8.702;2024-02-23T15:02:01;2.23;;;1.47;;
6902;SDS011;20232;49.408;8.702;2024-02-23T15:04:27;1.60;;;1.40;;
6902;SDS011;20232;49.408;8.702;2024-02-23T15:06:52;4.20;;;1.20;;
6902;SDS011;20232;49.408;8.702;2024-02-23T15:09:18;4.10;;;1.50;;
6902;SDS011;20232;49.408;8.702;2024-02-23T15:11:43;4.33;;;1.53;;
6902;SDS011;20232;49.408;8.702;2024-02-23T15:14:09;3.27;;;1.50;;
6902;SDS011;20232;49.408;8.702;2024-02-23T15:16:35;2.83;;;1.40;;
6902;SDS011;20232;49.408;8.702;2024-02-23T15:19:01;4.97;;;1.67;;
6902;SDS011;20232;49.408;8.702;2024-02-23T15:21:26;3.37;;;1.43;;
6902;SDS011;20232;49.408;8.702;2024-02-23T15:23:52;2.43;;;1.53;;
6902;SDS011;20232;49.408;8.702;2024-02-23T15:26:17;2.27;;;1.33;;
6902;SDS011;20232;49.408;8.702;2024-02-23T15:28:43;3.30;;;1.70;;
6902;SDS011;20232;49.408;8.702;2024-02-23T15:31:09;2.90;;;1.40;;
6902;SDS011;20232;49.408;8.702;2024-02-23T15:33:34;3.87;;;1.70;;
6902;SDS011;20232;49.408;8.702;2024-02-23T15:36:03;2.17;;;1.30;;
6902;SDS011;20232;49.408;8.702;2024-02-23T15:38:30;3.67;;;1.27;;
6902;SDS011;20232;49.408;8.702;2024-02-23T15:40:56;3.77;;;1.67;;
6902;SDS011;20232;49.408;8.702;2024-02-23T15:43:21;3.43;;;1.47;;
6902;SDS011;20232;49.408;8.702;2024-02-23T15:45:47;4.40;;;1.63;;
6902;SDS011;20232;49.408;8.702;2024-02-23T15:48:12;3.07;;;1.47;;
6902;SDS011;20232;49.408;8.702;2024-02-23T15:50:38;2.93;;;1.43;;
6902;SDS011;20232;49.408;8.702;2024-02-23T15:53:04;3.13;;;1.50;;
6902;SDS011;20232;49.408;8.702;2024-02-23T15:55:30;2.10;;;1.50;;
6902;SDS011;20232;49.408;8.702;2024-02-23T15:57:55;6.50;;;1.70;;
6902;SDS011;20232;49.408;8.702;2024-02-23T16:00:20;3.37;;;1.60;;
6902;SDS011;20232;49.408;8.702;2024-02-23T16:02:46;5.33;;;1.70;;
6902;SDS011;20232;49.408;8.702;2024-02-23T16:05:11;5.10;;;1.73;;
6902;SDS011;20232;49.408;8.702;2024-02-23T16:07:39;3.87;;;1.67;;
6902;SDS011;20232;49.408;8.702;2024-02-23T16:10:05;5.40;;;1.53;;
6902;SDS011;20232;49.408;8.702;2024-02-23T16:12:31;4.23;;;1.83;;
6902;SDS011;20232;49.408;8.702;2024-02-23T16:14:58;5.53;;;2.27;;
6902;SDS011;20232;49.408;8.702;2024-02-23T16:17:23;5.50;;;1.60;;
6902;SDS011;20232;49.408;8.702;2024-02-23T16:19:49;3.67;;;1.50;;
6902;SDS011;20232;49.408;8.702;2024-02-23T16:22:15;1.40;;;1.30;;
6902;SDS011;20232;49.408;8.702;2024-02-23T16:24:40;6.40;;;1.90;;
6902;SDS011;20232;49.408;8.702;2024-02-23T16:27:05;5.13;;;1.70;;
6902;SDS011;20232;49.408;8.702;2024-02-23T16:29:31;7.23;;;3.60;;
6902;SDS011;20232;49.408;8.702;2024-02-23T16:31:56;4.27;;;2.00;;
6902;SDS011;20232;49.408;8.702;2024-02-23T16:34:23;5.03;;;2.00;;
6902;SDS011;20232;49.408;8.702;2024-02-23T16:36:48;5.27;;;1.80;;
6902;SDS011;20232;49.408;8.702;2024-02-23T16:39:13;6.00;;;2.57;;
6902;SDS011;20232;49.408;8.702;2024-02-23T16:41:39;4.83;;;2.10;;
6902;SDS011;20232;49.408;8.702;2024-02-23T16:44:04;3.20;;;1.63;;
6902;SDS011;20232;49.408;8.702;2024-02-23T16:46:31;2.97;;;1.97;;
6902;SDS011;20232;49.408;8.702;2024-02-23T16:48:56;4.10;;;2.00;;
6902;SDS011;20232;49.408;8.702;2024-02-23T16:51:24;3.57;;;1.90;;
6902;SDS011;20232;49.408;8.702;2024-02-23T16:53:49;6.40;;;1.93;;
6902;SDS011;20232;49.408;8.702;2024-02-23T16:56:15;4.97;;;1.90;;
6902;SDS011;20232;49.408;8.702;2024-02-23T16:58:40;3.97;;;1.80;;
6902;SDS011;20232;49.408;8.702;2024-02-23T17:01:06;3.73;;;2.30;;
6902;SDS011;20232;49.408;8.702;2024-02-23T17:03:32;3.00;;;2.10;;
6902;SDS011;20232;49.408;8.702;2024-02-23T17:05:58;6.43;;;2.10;;
6902;SDS011;20232;49.408;8.702;2024-02-23T17:08:26;5.23;;;2.40;;
6902;SDS011;20232;49.408;8.702;2024-02-23T17:10:52;4.67;;;2.03;;
6902;SDS011;20232;49.408;8.702;2024-02-23T17:13:17;6.83;;;2.37;;
6902;SDS011;20232;49.408;8.702;2024-02-23T17:15:43;5.50;;;2.30;;
6902;SDS011;20232;49.408;8.702;2024-02-23T17:18:08;4.13;;;1.60;;
6902;SDS011;20232;49.408;8.702;2024-02-23T17:20:34;6.73;;;2.17;;
6902;SDS011;20232;49.408;8.702;2024-02-23T17:23:00;5.97;;;2.23;;
6902;SDS011;20232;49.408;8.702;2024-02-23T17:25:25;6.63;;;1.87;;
6902;SDS011;20232;49.408;8.702;2024-02-23T17:27:51;5.27;;;1.90;;
6902;SDS011;20232;49.408;8.702;2024-02-23T17:30:17;12.20;;;4.70;;
6902;SDS011;20232;49.408;8.702;2024-02-23T17:32:43;4.80;;;2.73;;
6902;SDS011;20232;49.408;8.702;2024-02-23T17:35:08;8.13;;;2.80;;
6902;SDS011;20232;49.408;8.702;2024-02-23T17:37:35;5.33;;;2.63;;
6902;SDS011;20232;49.408;8.702;2024-02-23T17:40:01;5.17;;;2.07;;
6902;SDS011;20232;49.408;8.702;2024-02-23T17:42:27;10.27;;;3.13;;
6902;SDS011;20232;49.408;8.702;2024-02-23T17:44:52;4.33;;;2.57;;
6902;SDS011;20232;49.408;8.702;2024-02-23T17:47:18;4.60;;;2.70;;
6902;SDS011;20232;49.408;8.702;2024-02-23T17:49:43;3.50;;;2.30;;
6902;SDS011;20232;49.408;8.702;2024-02-23T17:52:09;4.93;;;2.27;;
6902;SDS011;20232;49.408;8.702;2024-02-23T17:54:34;3.97;;;2.40;;
6902;SDS011;20232;49.408;8.702;2024-02-23T17:57:00;5.50;;;2.53;;
6902;SDS011;20232;49.408;8.702;2024-02-23T17:59:25;3.73;;;2.50;;
6902;SDS011;20232;49.408;8.702;2024-02-23T18:01:50;5.07;;;2.60;;
6902;SDS011;20232;49.408;8.702;2024-02-23T18:04:16;5.20;;;2.40;;
6902;SDS011;20232;49.408;8.702;2024-02-23T18:06:42;5.93;;;2.83;;
6902;SDS011;20232;49.408;8.702;2024-02-23T18:09:07;3.30;;;2.30;;
6902;SDS011;20232;49.408;8.702;2024-02-23T18:11:33;3.30;;;2.60;;
6902;SDS011;20232;49.408;8.702;2024-02-23T18:13:59;4.50;;;2.90;;
6902;SDS011;20232;49.408;8.702;2024-02-23T18:16:25;4.60;;;2.67;;
6902;SDS011;20232;49.408;8.702;2024-02-23T18:18:50;6.40;;;2.50;;
6902;SDS011;20232;49.408;8.702;2024-02-23T18:21:16;3.30;;;2.13;;
6902;SDS011;20232;49.408;8.702;2024-02-23T18:23:42;4.37;;;2.50;;
6902;SDS011;20232;49.408;8.702;2024-02-23T18:26:10;9.97;;;4.30;;
6902;SDS011;20232;49.408;8.702;2024-02-23T18:28:39;20.03;;;8.50;;
6902;SDS011;20232;49.408;8.702;2024-02-23T18:31:05;9.77;;;4.27;;
6902;SDS011;20232;49.408;8.702;2024-02-23T18:33:30;8.93;;;4.93;;
6902;SDS011;20232;49.408;8.702;2024-02-23T18:35:55;5.83;;;3.30;;
6902;SDS011;20232;49.408;8.702;2024-02-23T18:38:21;7.63;;;3.07;;
6902;SDS011;20232;49.408;8.702;2024-02-23T18:40:46;8.70;;;2.80;;
6902;SDS011;20232;49.408;8.702;2024-02-23T18:43:12;5.87;;;2.60;;
6902;SDS011;20232;49.408;8.702;2024-02-23T18:45:39;4.20;;;2.10;;
6902;SDS011;20232;49.408;8.702;2024-02-23T18:48:04;4.13;;;2.47;;
6902;SDS011;20232;49.408;8.702;2024-02-23T18:50:30;8.43;;;2.77;;
6902;SDS011;20232;49.408;8.702;2024-02-23T18:52:57;6.00;;;2.77;;
6902;SDS011;20232;49.408;8.702;2024-02-23T18:55:22;4.40;;;2.30;;
6902;SDS011;20232;49.408;8.702;2024-02-23T18:57:48;3.90;;;2.87;;
6902;SDS011;20232;49.408;8.702;2024-02-23T19:00:14;7.13;;;2.53;;
6902;SDS011;20232;49.408;8.702;2024-02-23T19:02:40;6.80;;;2.60;;
6902;SDS011;20232;49.408;8.702;2024-02-23T19:05:06;5.37;;;2.30;;
6902;SDS011;20232;49.408;8.702;2024-02-23T19:07:32;3.07;;;2.10;;
6902;SDS011;20232;49.408;8.702;2024-02-23T19:09:58;3.53;;;2.10;;
6902;SDS011;20232;49.408;8.702;2024-02-23T19:12:23;4.57;;;2.33;;
6902;SDS011;20232;49.408;8.702;2024-02-23T19:14:49;6.10;;;2.77;;
6902;SDS011;20232;49.408;8.702;2024-02-23T19:17:14;3.97;;;2.50;;
6902;SDS011;20232;49.408;8.702;2024-02-23T19:19:40;3.77;;;2.33;;
6902;SDS011;20232;49.408;8.702;2024-02-23T19:22:05;5.10;;;2.93;;
6902;SDS011;20232;49.408;8.702;2024-02-23T19:24:31;8.13;;;2.63;;
6902;SDS011;20232;49.408;8.702;2024-02-23T19:26:56;5.93;;;3.17;;
6902;SDS011;20232;49.408;8.702;2024-02-23T19:29:22;5.70;;;2.80;;
6902;SDS011;20232;49.408;8.702;2024-02-23T19:31:47;6.43;;;2.97;;
6902;SDS011;20232;49.408;8.702;2024-02-23T19:34:13;5.97;;;3.03;;
6902;SDS011;20232;49.408;8.702;2024-02-23T19:36:38;7.17;;;3.20;;
6902;SDS011;20232;49.408;8.702;2024-02-23T19:39:05;3.63;;;2.70;;
6902;SDS011;20232;49.408;8.702;2024-02-23T19:41:32;4.37;;;2.80;;
6902;SDS011;20232;49.408;8.702;2024-02-23T19:44:08;8.83;;;3.93;;
6902;SDS011;20232;49.408;8.702;2024-02-23T19:46:34;6.90;;;3.80;;
6902;SDS011;20232;49.408;8.702;2024-02-23T19:48:59;6.50;;;3.40;;
6902;SDS011;20232;49.408;8.702;2024-02-23T19:51:24;4.23;;;2.97;;
6902;SDS011;20232;49.408;8.702;2024-02-23T19:53:50;10.97;;;3.80;;
6902;SDS011;20232;49.408;8.702;2024-02-23T19:56:15;8.43;;;3.17;;